createdAt,value
2019-03-26T00:00:39.770Z,14.20
2019-03-26T00:05:37.258Z,8.17
2019-03-26T00:10:34.872Z,9.37
2019-03-26T00:19:54.505Z,7.27
2019-03-26T00:24:52.183Z,12.80
2019-03-26T00:29:49.576Z,9.13
2019-03-26T00:34:47.044Z,10.77
2019-03-26T00:39:44.591Z,14.27
2019-03-26T00:49:58.616Z,10.70
2019-03-26T00:59:59.531Z,14.63
2019-03-26T01:04:57.058Z,6.10
2019-03-26T01:09:54.726Z,10.90
2019-03-26T01:14:53.621Z,9.10
2019-03-26T01:19:51.183Z,8.57
2019-03-26T01:23:54.729Z,9.33
2019-03-26T01:28:52.500Z,7.73
2019-03-26T01:33:49.985Z,9.90
2019-03-26T01:38:48.606Z,10.03
2019-03-26T02:42:15.861Z,13.67
2019-03-26T02:46:55.581Z,16.50
2019-03-26T02:51:53.211Z,15.77
2019-03-26T02:56:50.834Z,12.60
2019-03-26T03:01:48.522Z,15.80
2019-03-26T03:12:02.503Z,10.50
2019-03-26T03:21:21.918Z,12.23
2019-03-26T03:26:19.507Z,13.63
2019-03-26T03:31:17.017Z,13.33
2019-03-26T03:36:14.655Z,11.70
2019-03-26T03:40:54.297Z,19.03
2019-03-26T03:44:57.868Z,17.77
2019-03-26T03:49:56.355Z,17.33
2019-03-26T04:00:12.301Z,21.77
2019-03-26T04:05:10.105Z,15.27
2019-03-26T04:10:08.311Z,10.83
2019-03-26T04:15:06.116Z,12.50
2019-03-26T04:20:04.204Z,15.70
2019-03-26T04:24:10.141Z,7.13
2019-03-26T04:29:07.843Z,16.13
2019-03-26T04:34:06.120Z,12.97
2019-03-26T04:39:03.626Z,16.07
2019-03-26T04:43:42.943Z,10.73
2019-03-26T04:48:40.545Z,11.47
2019-03-26T04:53:38.077Z,10.90
2019-03-26T04:58:35.801Z,24.20
2019-03-26T05:08:49.681Z,22.57
2019-03-26T05:13:47.849Z,13.07
2019-03-26T05:23:10.028Z,13.30
2019-03-26T05:27:50.950Z,13.00
2019-03-26T05:32:49.629Z,15.03
2019-03-26T05:37:47.411Z,8.90
2019-03-26T05:42:45.067Z,12.40
2019-03-26T05:47:42.555Z,13.57
2019-03-26T05:57:56.476Z,11.63
2019-03-26T06:02:53.968Z,7.93
2019-03-26T06:07:51.670Z,11.60
2019-03-26T06:12:50.377Z,7.97
2019-03-26T06:17:48.581Z,8.00
2019-03-26T06:21:52.109Z,6.77
2019-03-26T06:26:49.786Z,10.43
2019-03-26T06:31:47.276Z,13.70
2019-03-26T06:36:46.602Z,9.63
2019-03-26T06:41:44.327Z,7.40
2019-03-26T06:46:42.117Z,8.50
2019-03-26T06:51:39.789Z,6.00
2019-03-26T06:56:37.484Z,12.93
2019-03-26T07:01:35.234Z,10.47
2019-03-26T07:11:49.021Z,11.90
2019-03-26T07:16:49.606Z,10.13
2019-03-26T07:20:55.863Z,13.13
2019-03-26T07:25:53.612Z,6.73
2019-03-26T07:30:32.967Z,8.80
2019-03-26T07:35:30.994Z,7.43
2019-03-26T07:45:44.719Z,6.63
2019-03-26T07:50:42.440Z,10.87
2019-03-26T07:55:39.877Z,7.10
2019-03-26T08:00:37.469Z,6.20
2019-03-26T08:05:35.162Z,12.60
2019-03-26T08:10:32.922Z,11.37
2019-03-26T08:20:47.431Z,10.27
2019-03-26T08:24:51.037Z,10.33
2019-03-26T08:28:56.636Z,11.00
2019-03-26T08:33:55.502Z,7.70
2019-03-26T08:44:09.795Z,8.70
2019-03-26T08:48:51.214Z,8.67
2019-03-26T08:52:54.835Z,14.20
2019-03-26T08:57:52.386Z,10.67
2019-03-26T09:08:06.870Z,7.20
2019-03-26T09:18:20.625Z,7.90
2019-03-26T09:22:24.238Z,4.60
2019-03-26T09:27:21.984Z,5.77
2019-03-26T09:32:19.559Z,5.60
2019-03-26T09:37:17.142Z,7.10
2019-03-26T09:42:14.890Z,5.13
2019-03-26T09:47:16.565Z,7.03
2019-03-26T09:52:12.522Z,8.40
2019-03-26T09:57:10.199Z,3.90
2019-03-26T10:02:07.743Z,5.73
2019-03-26T10:07:05.390Z,3.30
2019-03-26T10:12:04.051Z,6.27
2019-03-26T10:21:23.579Z,4.10
2019-03-26T10:25:27.331Z,5.10
2019-03-26T10:29:33.959Z,4.87
2019-03-26T10:39:47.870Z,6.20
2019-03-26T10:44:45.685Z,7.63
2019-03-26T10:49:45.083Z,4.60
2019-03-26T10:54:42.860Z,2.93
2019-03-26T10:59:40.373Z,7.93
2019-03-26T11:04:37.944Z,5.17
2019-03-26T11:09:36.308Z,6.50
2019-03-26T11:13:59.025Z,7.10
2019-03-26T11:18:56.900Z,7.90
2019-03-26T11:23:02.758Z,4.40
2019-03-26T11:28:00.949Z,6.20
2019-03-26T11:38:14.682Z,7.50
2019-03-26T11:43:12.253Z,6.80
2019-03-26T11:48:09.674Z,5.23
2019-03-26T11:58:30.275Z,2.50
2019-03-26T12:03:22.975Z,4.57
2019-03-26T12:08:20.822Z,5.17
2019-03-26T12:18:34.505Z,3.13
2019-03-26T12:22:38.060Z,4.27
2019-03-26T12:27:36.761Z,3.23
2019-03-26T12:32:34.632Z,2.43
2019-03-26T12:37:32.353Z,3.10
2019-03-26T12:47:46.255Z,2.50
2019-03-26T12:52:43.800Z,5.27
2019-03-26T12:57:41.410Z,3.63
2019-03-26T13:07:55.420Z,5.40
2019-03-26T13:12:53.030Z,2.50
2019-03-26T13:17:50.675Z,3.57
2019-03-26T13:22:13.552Z,3.80
2019-03-26T13:26:52.765Z,3.17
2019-03-26T13:31:50.192Z,2.90
2019-03-26T13:36:47.779Z,6.93
2019-03-26T13:41:45.448Z,5.20
2019-03-26T13:46:43.192Z,2.00
2019-03-26T13:56:57.149Z,2.30
2019-03-26T14:01:54.755Z,2.10
2019-03-26T14:06:52.615Z,3.73
2019-03-26T14:17:06.778Z,8.17
2019-03-26T14:22:04.325Z,4.10
2019-03-26T14:26:15.218Z,4.60
2019-03-26T14:31:12.987Z,4.57
2019-03-26T14:36:11.347Z,3.30
2019-03-26T14:41:08.967Z,5.53
2019-03-26T14:51:23.264Z,5.80
2019-03-26T14:56:21.285Z,3.07
2019-03-26T15:01:19.059Z,3.10
2019-03-26T15:06:16.912Z,4.50
2019-03-26T15:11:14.450Z,4.27
2019-03-26T15:15:20.342Z,3.43
2019-03-26T15:20:17.977Z,7.97
2019-03-26T15:24:21.568Z,4.47
2019-03-26T15:34:36.442Z,2.00
2019-03-26T15:39:34.713Z,4.10
2019-03-26T15:49:48.340Z,5.60
2019-03-26T16:00:01.782Z,4.83
2019-03-26T16:04:59.398Z,3.40
2019-03-26T16:09:57.003Z,1.90
2019-03-26T16:14:54.707Z,1.13
2019-03-26T16:19:52.367Z,3.57
2019-03-26T16:23:56.812Z,2.27
2019-03-26T16:28:54.590Z,0.97
2019-03-26T16:33:52.078Z,1.30
2019-03-26T16:38:49.593Z,2.50
2019-03-26T16:43:47.207Z,0.70
2019-03-26T16:54:01.032Z,0.90
2019-03-26T16:58:58.841Z,0.97
2019-03-26T17:03:56.753Z,0.80
2019-03-26T17:08:54.521Z,2.53
2019-03-26T17:13:52.189Z,1.03
2019-03-26T17:18:49.824Z,1.40
2019-03-26T17:22:53.332Z,2.43
2019-03-26T17:27:51.157Z,2.60
2019-03-26T17:32:48.958Z,1.63
2019-03-26T17:37:58.981Z,2.20
2019-03-26T17:48:02.422Z,2.37
2019-03-26T17:53:00.016Z,3.17
2019-03-26T18:03:25.816Z,2.50
2019-03-26T18:08:13.729Z,2.20
2019-03-26T18:13:11.354Z,2.20
2019-03-26T18:18:09.011Z,2.10
2019-03-26T18:23:06.896Z,2.10
2019-03-26T18:27:10.458Z,1.93
2019-03-26T18:32:08.684Z,2.30
2019-03-26T18:37:07.043Z,3.53
2019-03-26T18:42:04.795Z,2.07
2019-03-26T18:52:19.302Z,1.67
2019-03-26T19:02:32.623Z,1.70
2019-03-26T19:07:30.073Z,3.40
2019-03-26T19:12:27.699Z,2.30
2019-03-26T19:16:36.982Z,4.33
2019-03-26T19:21:35.173Z,3.53
2019-03-26T19:25:38.755Z,3.80
2019-03-26T19:30:36.636Z,6.20
2019-03-26T19:35:34.308Z,4.63
2019-03-26T19:40:31.839Z,7.23
2019-03-26T19:45:29.715Z,8.40
2019-03-26T19:55:43.581Z,12.13
2019-03-26T20:00:41.331Z,9.83
2019-03-26T20:05:39.754Z,6.53
2019-03-26T20:10:37.695Z,6.37
2019-03-26T20:15:35.268Z,11.33
2019-03-26T20:20:32.906Z,11.27
2019-03-26T20:24:36.995Z,18.60
2019-03-26T20:29:34.619Z,14.23
2019-03-26T20:34:32.243Z,21.17
2019-03-26T20:39:30.096Z,9.40
2019-03-26T20:44:28.058Z,12.83
2019-03-26T20:49:25.893Z,19.20
2019-03-26T20:59:39.621Z,20.03
2019-03-26T21:04:37.066Z,16.63
2019-03-26T21:09:34.675Z,11.17
2019-03-26T21:14:32.187Z,19.87
2019-03-26T21:19:29.658Z,20.30
2019-03-26T21:23:33.289Z,10.00
2019-03-26T21:33:47.414Z,19.13
2019-03-26T21:44:04.676Z,12.63
2019-03-26T21:49:00.861Z,14.37
2019-03-26T21:54:00.427Z,10.27
2019-03-26T21:58:58.060Z,14.10
2019-03-26T22:03:55.681Z,15.70
2019-03-26T22:08:53.343Z,15.80
2019-03-26T22:13:51.229Z,17.10
2019-03-26T22:17:55.118Z,13.13
2019-03-26T22:21:58.985Z,17.47
2019-03-26T22:26:56.575Z,12.13
2019-03-26T22:31:54.311Z,14.67
2019-03-26T22:36:52.280Z,11.77
2019-03-26T22:41:50.185Z,18.00
2019-03-26T22:52:04.133Z,8.13
2019-03-26T22:57:02.038Z,15.63
2019-03-26T23:02:00.875Z,16.77
2019-03-26T23:06:58.442Z,13.30
2019-03-26T23:11:56.016Z,8.50
2019-03-26T23:22:09.730Z,10.70
2019-03-26T23:26:15.592Z,11.10
2019-03-26T23:31:13.416Z,10.57
2019-03-26T23:36:10.878Z,13.67
2019-03-26T23:41:08.371Z,8.70
2019-03-26T23:46:06.155Z,9.87
2019-03-26T23:56:20.457Z,10.10
